sensor_id;sensor_type;location;lat;lon;timestamp;pressure;altitude;pressure_sealevel;temperature;humidity
70815;BME280;58428;49.478;10.986;2024-02-21T00:02:10;99363.53;;;8.32;100.00
70815;BME280;58428;49.478;10.986;2024-02-21T00:04:36;99364.88;;;8.35;100.00
70815;BME280;58428;49.478;10.986;2024-02-21T00:07:02;99363.75;;;8.36;100.00
70815;BME280;58428;49.478;10.986;2024-02-21T00:09:27;99360.78;;;8.37;100.00
70815;BME280;58428;49.478;10.986;2024-02-21T00:11:54;99356.50;;;8.36;100.00
70815;BME280;58428;49.478;10.986;2024-02-21T00:14:21;99354.09;;;8.35;100.00
70815;BME280;58428;49.478;10.986;2024-02-21T00:16:47;99353.28;;;8.34;100.00
70815;BME280;58428;49.478;10.986;2024-02-21T00:19:12;99347.81;;;8.39;100.00
70815;BME280;58428;49.478;10.986;2024-02-21T00:21:39;99344.56;;;8.42;100.00
70815;BME280;58428;49.478;10.986;2024-02-21T00:24:06;99339.44;;;8.41;100.00
70815;BME280;58428;49.478;10.986;2024-02-21T00:26:33;99339.22;;;8.37;100.00
70815;BME280;58428;49.478;10.986;2024-02-21T00:28:59;99342.78;;;8.33;100.00
70815;BME280;58428;49.478;10.986;2024-02-21T00:31:27;99329.34;;;8.28;100.00
70815;BME280;58428;49.478;10.986;2024-02-21T00:33:52;99330.16;;;8.28;100.00
70815;BME280;58428;49.478;10.986;2024-02-21T00:36:18;99337.22;;;8.24;100.00
70815;BME280;58428;49.478;10.986;2024-02-21T00:38:43;99333.34;;;8.30;100.00
70815;BME280;58428;49.478;10.986;2024-02-21T00:41:09;99329.59;;;8.31;100.00
70815;BME280;58428;49.478;10.986;2024-02-21T00:43:39;99333.88;;;8.32;100.00
70815;BME280;58428;49.478;10.986;2024-02-21T00:46:10;99320.13;;;8.34;100.00
70815;BME280;58428;49.478;10.986;2024-02-21T00:48:36;99326.53;;;8.38;100.00
70815;BME280;58428;49.478;10.986;2024-02-21T00:51:02;99317.13;;;8.35;100.00
70815;BME280;58428;49.478;10.986;2024-02-21T00:53:31;99318.44;;;8.38;100.00
70815;BME280;58428;49.478;10.986;2024-02-21T00:55:57;99311.78;;;8.30;100.00
70815;BME280;58428;49.478;10.986;2024-02-21T00:58:34;99302.63;;;8.31;100.00
70815;BME280;58428;49.478;10.986;2024-02-21T01:01:01;99306.91;;;8.32;100.00
70815;BME280;58428;49.478;10.986;2024-02-21T01:03:31;99301.00;;;8.30;100.00
70815;BME280;58428;49.478;10.986;2024-02-21T01:05:57;99294.81;;;8.30;100.00
70815;BME280;58428;49.478;10.986;2024-02-21T01:08:23;99291.06;;;8.31;100.00
70815;BME280;58428;49.478;10.986;2024-02-21T01:10:48;99293.28;;;8.24;100.00
70815;BME280;58428;49.478;10.986;2024-02-21T01:13:14;99285.19;;;8.24;100.00
70815;BME280;58428;49.478;10.986;2024-02-21T01:16:05;99288.41;;;8.26;100.00
70815;BME280;58428;49.478;10.986;2024-02-21T01:18:38;99279.25;;;8.27;100.00
70815;BME280;58428;49.478;10.986;2024-02-21T01:21:22;99282.13;;;8.30;100.00
70815;BME280;58428;49.478;10.986;2024-02-21T01:24:06;99275.44;;;8.28;100.00
70815;BME280;58428;49.478;10.986;2024-02-21T01:26:31;99275.22;;;8.24;100.00
70815;BME280;58428;49.478;10.986;2024-02-21T01:32:38;99275.38;;;8.33;100.00
70815;BME280;58428;49.478;10.986;2024-02-21T01:35:03;99275.16;;;8.29;100.00
70815;BME280;58428;49.478;10.986;2024-02-21T01:37:40;99270.56;;;8.30;100.00
70815;BME280;58428;49.478;10.986;2024-02-21T01:40:10;99274.66;;;8.27;100.00
70815;BME280;58428;49.478;10.986;2024-02-21T01:42:46;99259.41;;;8.18;100.00
70815;BME280;58428;49.478;10.986;2024-02-21T01:45:13;99256.44;;;8.19;100.00
70815;BME280;58428;49.478;10.986;2024-02-21T01:47:38;99258.25;;;8.24;100.00
70815;BME280;58428;49.478;10.986;2024-02-21T01:50:04;99250.66;;;8.26;100.00
70815;BME280;58428;49.478;10.986;2024-02-21T01:52:30;99245.00;;;8.27;100.00
70815;BME280;58428;49.478;10.986;2024-02-21T01:54:59;99243.22;;;8.18;100.00
70815;BME280;58428;49.478;10.986;2024-02-21T01:57:26;99242.66;;;8.21;100.00
70815;BME280;58428;49.478;10.986;2024-02-21T01:59:52;99236.91;;;8.27;100.00
70815;BME280;58428;49.478;10.986;2024-02-21T02:02:18;99238.72;;;8.32;100.00
70815;BME280;58428;49.478;10.986;2024-02-21T02:04:47;99244.47;;;8.25;100.00
70815;BME280;58428;49.478;10.986;2024-02-21T02:07:12;99241.56;;;8.22;100.00
70815;BME280;58428;49.478;10.986;2024-02-21T02:09:41;99239.97;;;8.21;100.00
70815;BME280;58428;49.478;10.986;2024-02-21T02:12:07;99243.22;;;8.18;100.00
70815;BME280;58428;49.478;10.986;2024-02-21T02:14:37;99244.75;;;8.24;100.00
70815;BME280;58428;49.478;10.986;2024-02-21T02:17:02;99247.97;;;8.26;100.00
70815;BME280;58428;49.478;10.986;2024-02-21T02:19:28;99246.00;;;8.31;100.00
70815;BME280;58428;49.478;10.986;2024-02-21T02:22:09;99233.97;;;8.24;100.00
70815;BME280;58428;49.478;10.986;2024-02-21T02:24:38;99232.69;;;8.21;100.00
70815;BME280;58428;49.478;10.986;2024-02-21T02:27:10;99228.31;;;8.25;100.00
70815;BME280;58428;49.478;10.986;2024-02-21T02:29:35;99228.31;;;8.25;100.00
70815;BME280;58428;49.478;10.986;2024-02-21T02:32:01;99217.53;;;8.25;100.00
70815;BME280;58428;49.478;10.986;2024-02-21T02:34:26;99217.81;;;8.24;100.00
70815;BME280;58428;49.478;10.986;2024-02-21T02:36:52;99211.13;;;8.21;100.00
70815;BME280;58428;49.478;10.986;2024-02-21T02:39:17;99197.28;;;8.09;100.00
70815;BME280;58428;49.478;10.986;2024-02-21T02:41:42;99197.78;;;8.11;100.00
70815;BME280;58428;49.478;10.986;2024-02-21T02:44:08;99194.50;;;8.14;100.00
70815;BME280;58428;49.478;10.986;2024-02-21T02:46:33;99183.72;;;8.14;100.00
70815;BME280;58428;49.478;10.986;2024-02-21T02:48:59;99188.59;;;8.12;100.00
70815;BME280;58428;49.478;10.986;2024-02-21T02:51:24;99187.53;;;8.08;100.00
70815;BME280;58428;49.478;10.986;2024-02-21T02:53:50;99183.53;;;8.06;100.00
70815;BME280;58428;49.478;10.986;2024-02-21T02:56:15;99181.09;;;8.09;100.00
70815;BME280;58428;49.478;10.986;2024-02-21T02:58:43;99179.75;;;8.07;100.00
70815;BME280;58428;49.478;10.986;2024-02-21T03:01:09;99171.91;;;8.10;100.00
70815;BME280;58428;49.478;10.986;2024-02-21T03:03:35;99180.34;;;8.04;100.00
70815;BME280;58428;49.478;10.986;2024-02-21T03:06:03;99180.00;;;8.10;100.00
70815;BME280;58428;49.478;10.986;2024-02-21T03:08:30;99178.63;;;8.13;100.00
70815;BME280;58428;49.478;10.986;2024-02-21T03:10:58;99178.63;;;8.13;100.00
70815;BME280;58428;49.478;10.986;2024-02-21T03:13:28;99180.72;;;8.16;100.00
70815;BME280;58428;49.478;10.986;2024-02-21T03:15:53;99191.59;;;8.11;100.00
70815;BME280;58428;49.478;10.986;2024-02-21T03:18:21;99185.44;;;8.06;100.00
70815;BME280;58428;49.478;10.986;2024-02-21T03:20:47;99175.47;;;8.06;100.00
70815;BME280;58428;49.478;10.986;2024-02-21T03:23:12;99176.25;;;8.06;100.00
70815;BME280;58428;49.478;10.986;2024-02-21T03:25:38;99167.66;;;8.05;100.00
70815;BME280;58428;49.478;10.986;2024-02-21T03:28:03;99161.47;;;8.04;100.00
70815;BME280;58428;49.478;10.986;2024-02-21T03:30:29;99163.22;;;7.95;100.00
70815;BME280;58428;49.478;10.986;2024-02-21T03:32:54;99164.59;;;7.93;100.00
70815;BME280;58428;49.478;10.986;2024-02-21T03:35:22;99172.63;;;7.98;100.00
70815;BME280;58428;49.478;10.986;2024-02-21T03:37:51;99164.09;;;7.91;100.00
70815;BME280;58428;49.478;10.986;2024-02-21T03:40:17;99162.00;;;7.88;100.00
70815;BME280;58428;49.478;10.986;2024-02-21T03:42:42;99160.53;;;7.95;100.00
70815;BME280;58428;49.478;10.986;2024-02-21T03:45:11;99161.41;;;7.91;100.00
70815;BME280;58428;49.478;10.986;2024-02-21T03:47:44;99160.00;;;7.93;100.00
70815;BME280;58428;49.478;10.986;2024-02-21T03:50:10;99155.88;;;8.01;100.00
70815;BME280;58428;49.478;10.986;2024-02-21T03:52:36;99152.78;;;8.07;100.00
70815;BME280;58428;49.478;10.986;2024-02-21T03:55:03;99146.63;;;8.06;100.00
70815;BME280;58428;49.478;10.986;2024-02-21T03:57:29;99142.59;;;8.09;100.00
70815;BME280;58428;49.478;10.986;2024-02-21T03:59:54;99133.91;;;8.12;100.00
70815;BME280;58428;49.478;10.986;2024-02-21T04:02:20;99126.41;;;8.09;100.00
70815;BME280;58428;49.478;10.986;2024-02-21T04:04:45;99122.66;;;8.05;100.00
70815;BME280;58428;49.478;10.986;2024-02-21T04:07:12;99116.19;;;8.06;100.00
70815;BME280;58428;49.478;10.986;2024-02-21T04:09:38;99121.84;;;8.05;100.00
70815;BME280;58428;49.478;10.986;2024-02-21T04:12:04;99120.25;;;8.04;100.00
70815;BME280;58428;49.478;10.986;2024-02-21T04:14:29;99122.88;;;8.08;100.00
70815;BME280;58428;49.478;10.986;2024-02-21T04:16:55;99126.31;;;8.14;100.00
70815;BME280;58428;49.478;10.986;2024-02-21T04:19:22;99125.75;;;8.17;100.00
70815;BME280;58428;49.478;10.986;2024-02-21T04:21:47;99137.44;;;8.07;100.00
70815;BME280;58428;49.478;10.986;2024-02-21T04:24:13;99145.28;;;8.09;100.00
70815;BME280;58428;49.478;10.986;2024-02-21T04:26:39;99147.22;;;8.04;100.00
70815;BME280;58428;49.478;10.986;2024-02-21T04:29:06;99142.47;;;7.96;100.00
70815;BME280;58428;49.478;10.986;2024-02-21T04:31:34;99144.81;;;8.02;100.00
70815;BME280;58428;49.478;10.986;2024-02-21T04:33:59;99132.91;;;8.03;100.00
70815;BME280;58428;49.478;10.986;2024-02-21T04:36:25;99127.84;;;8.02;100.00
70815;BME280;58428;49.478;10.986;2024-02-21T04:38:50;99133.81;;;7.99;100.00
70815;BME280;58428;49.478;10.986;2024-02-21T04:41:16;99126.50;;;7.99;100.00
70815;BME280;58428;49.478;10.986;2024-02-21T04:43:41;99120.25;;;8.04;100.00
70815;BME280;58428;49.478;10.986;2024-02-21T04:46:07;99125.34;;;8.05;100.00
70815;BME280;58428;49.478;10.986;2024-02-21T04:48:32;99110.34;;;7.99;100.00
70815;BME280;58428;49.478;10.986;2024-02-21T04:50:58;99117.00;;;7.88;100.00
70815;BME280;58428;49.478;10.986;2024-02-21T04:53:23;99115.97;;;7.84;100.00
70815;BME280;58428;49.478;10.986;2024-02-21T04:55:49;99116.09;;;7.93;100.00
70815;BME280;58428;49.478;10.986;2024-02-21T04:58:14;99102.75;;;8.01;100.00
70815;BME280;58428;49.478;10.986;2024-02-21T05:00:40;99095.50;;;8.02;100.00
70815;BME280;58428;49.478;10.986;2024-02-21T05:03:08;99101.19;;;8.00;100.00
70815;BME280;58428;49.478;10.986;2024-02-21T05:05:33;99091.69;;;8.03;100.00
70815;BME280;58428;49.478;10.986;2024-02-21T05:08:00;99086.31;;;8.03;100.00
70815;BME280;58428;49.478;10.986;2024-02-21T05:10:25;99083.13;;;8.01;100.00
70815;BME280;58428;49.478;10.986;2024-02-21T05:12:54;99080.78;;;7.94;100.00
70815;BME280;58428;49.478;10.986;2024-02-21T05:15:19;99068.22;;;7.90;100.00
70815;BME280;58428;49.478;10.986;2024-02-21T05:17:44;99075.56;;;7.84;100.00
70815;BME280;58428;49.478;10.986;2024-02-21T05:20:10;99073.44;;;7.81;100.00
70815;BME280;58428;49.478;10.986;2024-02-21T05:22:38;99069.38;;;7.84;100.00
70815;BME280;58428;49.478;10.986;2024-02-21T05:25:03;99071.03;;;7.80;100.00
70815;BME280;58428;49.478;10.986;2024-02-21T05:27:29;99065.13;;;7.78;100.00
70815;BME280;58428;49.478;10.986;2024-02-21T05:30:22;99069.44;;;7.79;100.00
70815;BME280;58428;49.478;10.986;2024-02-21T05:32:48;99067.13;;;7.72;100.00
70815;BME280;58428;49.478;10.986;2024-02-21T05:35:13;99068.59;;;7.65;100.00
70815;BME280;58428;49.478;10.986;2024-02-21T05:37:45;99068.63;;;7.60;100.00
70815;BME280;58428;49.478;10.986;2024-02-21T05:40:20;99069.06;;;7.49;100.00
70815;BME280;58428;49.478;10.986;2024-02-21T05:42:46;99071.75;;;7.49;100.00
70815;BME280;58428;49.478;10.986;2024-02-21T05:45:16;99064.50;;;7.49;100.00
70815;BME280;58428;49.478;10.986;2024-02-21T05:47:42;99062.31;;;7.51;100.00
70815;BME280;58428;49.478;10.986;2024-02-21T05:50:08;99060.44;;;7.52;100.00
70815;BME280;58428;49.478;10.986;2024-02-21T05:52:34;99060.44;;;7.52;100.00
70815;BME280;58428;49.478;10.986;2024-02-21T05:55:02;99064.13;;;7.56;100.00
70815;BME280;58428;49.478;10.986;2024-02-21T05:57:28;99061.66;;;7.59;100.00
70815;BME280;58428;49.478;10.986;2024-02-21T05:59:54;99061.16;;;7.57;100.00
70815;BME280;58428;49.478;10.986;2024-02-21T06:02:20;99065.44;;;7.58;100.00
70815;BME280;58428;49.478;10.986;2024-02-21T06:04:49;99064.94;;;7.56;100.00
70815;BME280;58428;49.478;10.986;2024-02-21T06:07:14;99062.53;;;7.55;100.00
70815;BME280;58428;49.478;10.986;2024-02-21T06:09:40;99058.00;;;7.50;100.00
70815;BME280;58428;49.478;10.986;2024-02-21T06:12:06;99055.09;;;7.47;100.00
70815;BME280;58428;49.478;10.986;2024-02-21T06:14:33;99060.06;;;7.40;100.00
70815;BME280;58428;49.478;10.986;2024-02-21T06:16:59;99054.97;;;7.38;100.00
70815;BME280;58428;49.478;10.986;2024-02-21T06:19:28;99047.47;;;7.35;100.00
70815;BME280;58428;49.478;10.986;2024-02-21T06:21:53;99056.41;;;7.31;100.00
70815;BME280;58428;49.478;10.986;2024-02-21T06:24:42;99055.38;;;7.27;100.00
70815;BME280;58428;49.478;10.986;2024-02-21T06:34:35;99070.34;;;7.15;100.00
70815;BME280;58428;49.478;10.986;2024-02-21T06:41:17;99080.47;;;6.99;100.00
70815;BME280;58428;49.478;10.986;2024-02-21T06:44:15;99093.06;;;7.04;100.00
70815;BME280;58428;49.478;10.986;2024-02-21T06:54:32;99066.72;;;7.24;100.00
70815;BME280;58428;49.478;10.986;2024-02-21T07:00:52;99056.91;;;7.33;100.00
70815;BME280;58428;49.478;10.986;2024-02-21T07:10:59;99051.69;;;7.41;100.00
70815;BME280;58428;49.478;10.986;2024-02-21T07:14:10;99055.41;;;7.45;100.00
70815;BME280;58428;49.478;10.986;2024-02-21T07:23:27;99048.72;;;7.61;100.00
70815;BME280;58428;49.478;10.986;2024-02-21T07:26:04;99046.75;;;7.67;100.00
70815;BME280;58428;49.478;10.986;2024-02-21T07:29:16;99052.84;;;7.72;100.00
70815;BME280;58428;49.478;10.986;2024-02-21T07:35:45;99046.78;;;7.80;100.00
70815;BME280;58428;49.478;10.986;2024-02-21T07:38:16;99038.25;;;7.91;100.00
70815;BME280;58428;49.478;10.986;2024-02-21T07:51:34;99019.50;;;8.36;100.00
70815;BME280;58428;49.478;10.986;2024-02-21T07:57:58;99026.78;;;8.49;100.00
70815;BME280;58428;49.478;10.986;2024-02-21T08:04:26;99024.97;;;8.44;100.00
70815;BME280;58428;49.478;10.986;2024-02-21T08:10:52;99012.22;;;8.50;100.00
70815;BME280;58428;49.478;10.986;2024-02-21T08:13:52;99010.81;;;8.66;100.00
70815;BME280;58428;49.478;10.986;2024-02-21T08:21:08;98984.25;;;8.86;100.00
70815;BME280;58428;49.478;10.986;2024-02-21T08:27:08;98987.63;;;8.91;100.00
70815;BME280;58428;49.478;10.986;2024-02-21T08:29:48;98991.13;;;9.05;100.00
70815;BME280;58428;49.478;10.986;2024-02-21T08:36:24;98982.22;;;9.18;100.00
70815;BME280;58428;49.478;10.986;2024-02-21T09:01:26;98955.03;;;10.15;100.00
70815;BME280;58428;49.478;10.986;2024-02-21T09:04:01;98961.44;;;10.27;100.00
70815;BME280;58428;49.478;10.986;2024-02-21T09:06:31;98967.22;;;10.34;100.00
70815;BME280;58428;49.478;10.986;2024-02-21T09:09:36;98966.28;;;10.38;100.00
70815;BME280;58428;49.478;10.986;2024-02-21T09:12:25;98962.00;;;10.37;100.00
70815;BME280;58428;49.478;10.986;2024-02-21T10:05:13;98913.28;;;10.84;100.00
70815;BME280;58428;49.478;10.986;2024-02-21T10:11:33;98900.44;;;11.15;100.00
70815;BME280;58428;49.478;10.986;2024-02-21T10:14:27;98895.81;;;11.15;100.00
70815;BME280;58428;49.478;10.986;2024-02-21T10:17:36;98893.13;;;11.15;100.00
70815;BME280;58428;49.478;10.986;2024-02-21T10:28:41;98870.34;;;11.25;100.00
70815;BME280;58428;49.478;10.986;2024-02-21T11:19:45;98779.41;;;12.43;100.00
70815;BME280;58428;49.478;10.986;2024-02-21T11:25:21;98759.19;;;12.32;100.00
70815;BME280;58428;49.478;10.986;2024-02-21T11:32:19;98749.88;;;12.62;100.00
70815;BME280;58428;49.478;10.986;2024-02-21T11:35:20;98744.94;;;12.64;100.00
70815;BME280;58428;49.478;10.986;2024-02-21T11:37:47;98741.50;;;12.55;100.00
70815;BME280;58428;49.478;10.986;2024-02-21T11:43:49;98725.28;;;12.47;100.00
70815;BME280;58428;49.478;10.986;2024-02-21T11:49:37;98713.84;;;12.82;100.00
70815;BME280;58428;49.478;10.986;2024-02-21T11:52:46;98709.50;;;13.01;100.00
70815;BME280;58428;49.478;10.986;2024-02-21T11:55:36;98712.72;;;13.15;100.00
70815;BME280;58428;49.478;10.986;2024-02-21T12:07:14;98682.84;;;13.15;100.00
70815;BME280;58428;49.478;10.986;2024-02-21T12:14:05;98654.09;;;13.25;100.00
70815;BME280;58428;49.478;10.986;2024-02-21T12:16:45;98658.00;;;13.48;100.00
70815;BME280;58428;49.478;10.986;2024-02-21T12:19:32;98655.50;;;13.55;100.00
70815;BME280;58428;49.478;10.986;2024-02-21T12:25:33;98652.66;;;13.40;100.00
70815;BME280;58428;49.478;10.986;2024-02-21T12:47:05;98602.97;;;13.51;100.00
70815;BME280;58428;49.478;10.986;2024-02-21T12:49:33;98606.22;;;13.45;100.00
70815;BME280;58428;49.478;10.986;2024-02-21T12:52:25;98593.00;;;13.43;100.00
70815;BME280;58428;49.478;10.986;2024-02-21T12:55:00;98588.47;;;13.59;100.00
70815;BME280;58428;49.478;10.986;2024-02-21T12:57:35;98583.34;;;13.69;100.00
70815;BME280;58428;49.478;10.986;2024-02-21T13:00:09;98576.97;;;13.77;100.00
70815;BME280;58428;49.478;10.986;2024-02-21T13:02:56;98575.19;;;13.58;100.00
70815;BME280;58428;49.478;10.986;2024-02-21T13:05:47;98566.78;;;13.62;100.00
70815;BME280;58428;49.478;10.986;2024-02-21T13:08:18;98566.25;;;13.57;100.00
70815;BME280;58428;49.478;10.986;2024-02-21T13:11:40;98550.16;;;13.64;100.00
70815;BME280;58428;49.478;10.986;2024-02-21T13:14:27;98541.06;;;13.72;100.00
70815;BME280;58428;49.478;10.986;2024-02-21T13:16:52;98538.13;;;13.77;100.00
70815;BME280;58428;49.478;10.986;2024-02-21T13:22:59;98523.31;;;13.74;100.00
70815;BME280;58428;49.478;10.986;2024-02-21T13:25:39;98531.00;;;13.72;100.00
70815;BME280;58428;49.478;10.986;2024-02-21T13:28:09;98521.69;;;13.73;100.00
70815;BME280;58428;49.478;10.986;2024-02-21T13:34:09;98508.81;;;13.70;100.00
70815;BME280;58428;49.478;10.986;2024-02-21T13:40:01;98491.97;;;13.92;100.00
70815;BME280;58428;49.478;10.986;2024-02-21T13:42:37;98492.97;;;13.88;100.00
70815;BME280;58428;49.478;10.986;2024-02-21T13:45:39;98487.53;;;13.88;100.00
70815;BME280;58428;49.478;10.986;2024-02-21T13:52:26;98474.53;;;13.42;100.00
70815;BME280;58428;49.478;10.986;2024-02-21T13:54:52;98471.13;;;13.57;100.00
70815;BME280;58428;49.478;10.986;2024-02-21T13:57:21;98470.19;;;13.65;100.00
70815;BME280;58428;49.478;10.986;2024-02-21T14:02:49;98464.63;;;13.61;100.00
70815;BME280;58428;49.478;10.986;2024-02-21T14:05:50;98458.97;;;13.66;100.00
70815;BME280;58428;49.478;10.986;2024-02-21T14:08:27;98450.44;;;13.68;100.00
70815;BME280;58428;49.478;10.986;2024-02-21T14:10:55;98456.09;;;13.75;100.00
70815;BME280;58428;49.478;10.986;2024-02-21T14:13:30;98452.03;;;13.69;100.00
70815;BME280;58428;49.478;10.986;2024-02-21T14:16:25;98446.94;;;13.67;100.00
70815;BME280;58428;49.478;10.986;2024-02-21T14:18:53;98446.94;;;13.67;100.00
70815;BME280;58428;49.478;10.986;2024-02-21T14:21:21;98451.41;;;13.48;98.84
70815;BME280;58428;49.478;10.986;2024-02-21T14:23:47;98445.53;;;13.46;100.00
70815;BME280;58428;49.478;10.986;2024-02-21T14:26:15;98441.28;;;13.60;100.00
70815;BME280;58428;49.478;10.986;2024-02-21T14:28:41;98437.75;;;13.72;100.00
70815;BME280;58428;49.478;10.986;2024-02-21T14:34:41;98428.75;;;13.83;100.00
70815;BME280;58428;49.478;10.986;2024-02-21T14:40:37;98431.81;;;13.82;100.00
70815;BME280;58428;49.478;10.986;2024-02-21T14:43:21;98416.31;;;13.82;100.00
70815;BME280;58428;49.478;10.986;2024-02-21T14:46:20;98416.53;;;13.77;100.00
70815;BME280;58428;49.478;10.986;2024-02-21T14:49:14;98416.81;;;13.72;100.00
70815;BME280;58428;49.478;10.986;2024-02-21T14:52:08;98405.94;;;13.60;99.84
70815;BME280;58428;49.478;10.986;2024-02-21T14:54:42;98387.84;;;13.64;100.00
70815;BME280;58428;49.478;10.986;2024-02-21T14:57:36;98387.13;;;13.67;100.00
70815;BME280;58428;49.478;10.986;2024-02-21T15:00:32;98394.88;;;13.54;100.00
70815;BME280;58428;49.478;10.986;2024-02-21T15:12:42;98392.72;;;13.20;100.00
70815;BME280;58428;49.478;10.986;2024-02-21T15:15:18;98394.88;;;13.15;100.00
70815;BME280;58428;49.478;10.986;2024-02-21T15:17:47;98398.59;;;13.10;100.00
70815;BME280;58428;49.478;10.986;2024-02-21T15:20:33;98381.44;;;12.94;98.42
70815;BME280;58428;49.478;10.986;2024-02-21T15:22:59;98374.44;;;12.93;100.00
70815;BME280;58428;49.478;10.986;2024-02-21T15:25:31;98367.41;;;12.92;100.00
70815;BME280;58428;49.478;10.986;2024-02-21T15:27:56;98355.41;;;12.93;100.00
70815;BME280;58428;49.478;10.986;2024-02-21T15:33:02;98350.22;;;12.88;100.00
70815;BME280;58428;49.478;10.986;2024-02-21T15:35:58;98339.59;;;12.84;100.00
70815;BME280;58428;49.478;10.986;2024-02-21T15:38:26;98338.88;;;12.75;100.00
70815;BME280;58428;49.478;10.986;2024-02-21T15:40:57;98336.19;;;12.75;100.00
70815;BME280;58428;49.478;10.986;2024-02-21T15:46:31;98349.44;;;12.64;100.00
70815;BME280;58428;49.478;10.986;2024-02-21T15:49:05;98338.00;;;12.59;100.00
70815;BME280;58428;49.478;10.986;2024-02-21T15:51:37;98336.06;;;12.59;100.00
70815;BME280;58428;49.478;10.986;2024-02-21T15:54:43;98336.06;;;12.59;100.00
70815;BME280;58428;49.478;10.986;2024-02-21T15:57:15;98335.06;;;12.52;100.00
70815;BME280;58428;49.478;10.986;2024-02-21T16:06:19;98319.16;;;12.39;100.00
70815;BME280;58428;49.478;10.986;2024-02-21T16:18:45;98303.66;;;12.15;100.00
70815;BME280;58428;49.478;10.986;2024-02-21T16:27:53;98271.31;;;11.99;100.00
70815;BME280;58428;49.478;10.986;2024-02-21T16:30:47;98257.19;;;11.93;100.00
70815;BME280;58428;49.478;10.986;2024-02-21T16:36:55;98261.22;;;11.76;100.00
70815;BME280;58428;49.478;10.986;2024-02-21T16:39:23;98255.94;;;11.67;100.00
70815;BME280;58428;49.478;10.986;2024-02-21T16:41:50;98255.22;;;11.58;100.00
70815;BME280;58428;49.478;10.986;2024-02-21T16:44:19;98256.56;;;11.52;100.00
70815;BME280;58428;49.478;10.986;2024-02-21T16:46:44;98253.72;;;11.49;100.00
70815;BME280;58428;49.478;10.986;2024-02-21T16:49:10;98251.34;;;11.47;100.00
70815;BME280;58428;49.478;10.986;2024-02-21T16:51:35;98246.91;;;11.43;100.00
70815;BME280;58428;49.478;10.986;2024-02-21T16:54:00;98241.47;;;11.31;100.00
70815;BME280;58428;49.478;10.986;2024-02-21T16:56:32;98233.66;;;11.30;100.00
70815;BME280;58428;49.478;10.986;2024-02-21T16:58:57;98231.50;;;11.23;100.00
70815;BME280;58428;49.478;10.986;2024-02-21T17:01:23;98210.41;;;11.17;100.00
70815;BME280;58428;49.478;10.986;2024-02-21T17:03:51;98193.91;;;11.10;100.00
70815;BME280;58428;49.478;10.986;2024-02-21T17:06:16;98188.69;;;11.05;100.00
70815;BME280;58428;49.478;10.986;2024-02-21T17:08:42;98187.44;;;11.02;100.00
70815;BME280;58428;49.478;10.986;2024-02-21T17:11:07;98195.88;;;11.01;100.00
70815;BME280;58428;49.478;10.986;2024-02-21T17:13:33;98196.09;;;10.96;100.00
70815;BME280;58428;49.478;10.986;2024-02-21T17:20:10;98188.19;;;10.91;100.00
70815;BME280;58428;49.478;10.986;2024-02-21T17:22:38;98181.97;;;10.91;100.00
70815;BME280;58428;49.478;10.986;2024-02-21T17:25:12;98185.44;;;10.79;100.00
70815;BME280;58428;49.478;10.986;2024-02-21T17:27:38;98185.31;;;10.76;100.00
70815;BME280;58428;49.478;10.986;2024-02-21T17:30:09;98179.88;;;10.76;100.00
70815;BME280;58428;49.478;10.986;2024-02-21T17:33:06;98179.88;;;10.76;100.00
70815;BME280;58428;49.478;10.986;2024-02-21T17:35:54;98180.69;;;10.76;100.00
70815;BME280;58428;49.478;10.986;2024-02-21T17:38:23;98175.28;;;10.76;100.00
70815;BME280;58428;49.478;10.986;2024-02-21T17:40:50;98168.75;;;10.77;100.00
70815;BME280;58428;49.478;10.986;2024-02-21T17:43:16;98167.16;;;10.76;100.00
70815;BME280;58428;49.478;10.986;2024-02-21T17:45:43;98166.03;;;10.77;100.00
70815;BME280;58428;49.478;10.986;2024-02-21T17:48:09;98173.22;;;10.73;100.00
70815;BME280;58428;49.478;10.986;2024-02-21T17:50:39;98168.97;;;10.72;100.00
70815;BME280;58428;49.478;10.986;2024-02-21T17:53:14;98164.53;;;10.68;100.00
70815;BME280;58428;49.478;10.986;2024-02-21T17:59:10;98173.31;;;10.65;100.00
70815;BME280;58428;49.478;10.986;2024-02-21T18:01:45;98166.31;;;10.64;100.00
70815;BME280;58428;49.478;10.986;2024-02-21T18:04:10;98168.69;;;10.65;100.00
70815;BME280;58428;49.478;10.986;2024-02-21T18:06:36;98159.66;;;10.62;100.00
70815;BME280;58428;49.478;10.986;2024-02-21T18:09:18;98154.13;;;10.58;100.00
70815;BME280;58428;49.478;10.986;2024-02-21T18:11:45;98148.84;;;10.62;100.00
70815;BME280;58428;49.478;10.986;2024-02-21T18:14:10;98146.13;;;10.62;100.00
70815;BME280;58428;49.478;10.986;2024-02-21T18:16:36;98135.00;;;10.63;100.00
70815;BME280;58428;49.478;10.986;2024-02-21T18:19:01;98138.47;;;10.64;100.00
70815;BME280;58428;49.478;10.986;2024-02-21T18:21:32;98129.56;;;10.63;100.00
70815;BME280;58428;49.478;10.986;2024-02-21T18:23:58;98131.97;;;10.65;100.00
70815;BME280;58428;49.478;10.986;2024-02-21T18:26:23;98119.41;;;10.60;100.00
70815;BME280;58428;49.478;10.986;2024-02-21T18:28:51;98117.38;;;10.57;100.00
70815;BME280;58428;49.478;10.986;2024-02-21T18:31:18;98114.78;;;10.61;100.00
70815;BME280;58428;49.478;10.986;2024-02-21T18:33:45;98123.13;;;10.56;100.00
70815;BME280;58428;49.478;10.986;2024-02-21T18:36:13;98120.88;;;10.58;100.00
70815;BME280;58428;49.478;10.986;2024-02-21T18:38:40;98123.38;;;10.63;100.00
70815;BME280;58428;49.478;10.986;2024-02-21T18:41:43;98123.16;;;10.67;100.00
70815;BME280;58428;49.478;10.986;2024-02-21T18:44:15;98102.66;;;10.66;100.00
70815;BME280;58428;49.478;10.986;2024-02-21T18:46:58;98091.03;;;10.66;100.00